createdAt,value
2022-12-06T02:35:35.886Z,22.87
2022-12-06T02:36:48.769Z,22.27
2022-12-06T02:37:58.653Z,20.94
2022-12-06T02:39:05.650Z,22.19
2022-12-06T02:40:16.296Z,22.56
2022-12-06T02:41:23.316Z,21.62
2022-12-06T02:42:30.283Z,31.40
2022-12-06T02:43:37.236Z,23.27
2022-12-06T02:44:46.966Z,24.67
2022-12-06T02:45:53.919Z,22.94
2022-12-06T02:47:01.331Z,28.25
2022-12-06T02:48:07.575Z,32.19
2022-12-06T02:49:13.992Z,29.20
2022-12-06T02:50:20.916Z,23.20
2022-12-06T02:51:27.643Z,28.25
2022-12-06T02:52:34.396Z,20.50
2022-12-06T02:53:41.610Z,23.75
2022-12-06T02:54:48.557Z,36.69
2022-12-06T02:55:53.067Z,30.00
2022-12-06T02:56:57.072Z,32.47
2022-12-06T02:58:01.047Z,32.40
2022-12-06T02:59:05.113Z,23.33
2022-12-06T03:00:32.497Z,27.67
2022-12-06T03:01:39.636Z,24.87
2022-12-06T03:02:44.021Z,27.13
2022-12-06T03:04:00.006Z,24.00
2022-12-06T03:05:16.159Z,21.07
2022-12-06T03:06:23.152Z,26.33
2022-12-06T03:07:39.200Z,34.81
2022-12-06T03:08:49.246Z,23.56
2022-12-06T03:10:07.739Z,24.25
2022-12-06T03:11:12.653Z,21.87
2022-12-06T03:12:25.176Z,24.63
2022-12-06T03:13:57.534Z,27.93
2022-12-06T03:15:13.311Z,22.25
2022-12-06T03:16:37.136Z,22.60
2022-12-06T03:17:56.066Z,26.50
2022-12-06T03:19:08.535Z,23.80
2022-12-06T03:20:16.267Z,22.53
2022-12-06T03:21:32.127Z,22.31
2022-12-06T03:22:40.176Z,22.80
2022-12-06T03:23:47.374Z,21.44
2022-12-06T03:24:54.067Z,25.75
2022-12-06T03:26:01.062Z,27.31
2022-12-06T03:27:13.429Z,28.56
2022-12-06T03:28:20.065Z,29.19
2022-12-06T03:29:26.485Z,27.94
2022-12-06T03:30:33.999Z,28.50
2022-12-06T03:31:41.433Z,33.88
2022-12-06T03:32:48.105Z,34.87
2022-12-06T03:34:03.796Z,33.27
2022-12-06T03:35:10.825Z,28.19
2022-12-06T03:36:17.630Z,31.67
2022-12-06T03:37:24.901Z,30.94
2022-12-06T03:38:34.716Z,25.73
2022-12-06T03:39:50.414Z,26.87
2022-12-06T03:40:56.786Z,26.47
2022-12-06T03:42:02.693Z,24.67
2022-12-06T03:43:07.991Z,20.56
2022-12-06T03:44:12.131Z,29.12
2022-12-06T03:45:16.846Z,21.56
2022-12-06T03:46:27.755Z,27.06
2022-12-06T03:47:49.212Z,25.94
2022-12-06T03:49:08.172Z,26.87
2022-12-06T03:50:15.915Z,26.87
2022-12-06T03:51:22.777Z,26.40
2022-12-06T03:52:30.986Z,26.80
2022-12-06T03:53:35.063Z,30.62
2022-12-06T03:54:43.128Z,27.13
2022-12-06T03:55:47.055Z,23.12
2022-12-06T03:56:51.048Z,25.31
2022-12-06T03:57:55.119Z,25.53
2022-12-06T03:58:58.959Z,23.87
2022-12-06T04:00:05.467Z,25.73
2022-12-06T04:01:09.510Z,22.73
2022-12-06T04:02:13.724Z,26.27
2022-12-06T04:03:20.741Z,19.19
2022-12-06T04:04:24.645Z,24.31
2022-12-06T04:05:28.501Z,25.53
2022-12-06T04:06:32.797Z,24.81
2022-12-06T04:07:36.911Z,23.27
2022-12-06T04:08:41.214Z,24.69
2022-12-06T04:09:45.142Z,25.31
2022-12-06T04:10:49.103Z,25.47
2022-12-06T04:11:53.030Z,25.56
2022-12-06T04:12:57.079Z,20.06
2022-12-06T04:14:00.960Z,23.44
2022-12-06T04:15:07.065Z,21.12
2022-12-06T04:16:11.396Z,24.07
2022-12-06T04:17:15.461Z,23.62
2022-12-06T04:18:19.367Z,26.37
2022-12-06T04:19:24.837Z,24.12
2022-12-06T04:20:29.994Z,23.06
2022-12-06T04:21:33.914Z,24.53
2022-12-06T04:22:37.929Z,23.87
2022-12-06T04:23:44.593Z,23.87
2022-12-06T04:24:48.585Z,25.81
2022-12-06T04:25:52.458Z,21.19
2022-12-06T04:26:56.481Z,29.27
2022-12-06T04:28:00.933Z,23.31
2022-12-06T04:29:04.936Z,23.50
2022-12-06T04:30:10.517Z,20.75
2022-12-06T04:31:21.523Z,27.81
2022-12-06T04:32:20.659Z,26.12
2022-12-06T04:33:24.685Z,18.00
2022-12-06T04:34:28.670Z,22.81
2022-12-06T04:35:32.592Z,21.44
2022-12-06T04:36:38.501Z,24.87
2022-12-06T04:37:42.483Z,23.81
2022-12-06T04:38:46.360Z,29.00
2022-12-06T04:39:50.675Z,31.69
2022-12-06T04:40:54.600Z,29.60
2022-12-06T04:42:00.093Z,33.20
2022-12-06T04:43:04.052Z,30.25
2022-12-06T04:44:08.002Z,31.06
2022-12-06T04:45:12.074Z,28.81
2022-12-06T04:46:16.607Z,28.81
2022-12-06T04:47:21.040Z,23.81
2022-12-06T04:48:25.135Z,29.56
2022-12-06T04:49:29.047Z,23.94
2022-12-06T04:50:32.972Z,30.81
2022-12-06T04:51:36.915Z,29.67
2022-12-06T04:52:40.841Z,30.47
2022-12-06T04:53:44.895Z,25.94
2022-12-06T04:54:48.883Z,24.47
2022-12-06T04:55:52.804Z,26.40
2022-12-06T04:56:58.579Z,25.60
2022-12-06T04:58:02.535Z,26.25
2022-12-06T04:59:06.617Z,31.13
2022-12-06T05:00:11.566Z,25.53
2022-12-06T05:01:18.495Z,24.67
2022-12-06T05:02:22.572Z,26.31
2022-12-06T05:03:26.685Z,31.60
2022-12-06T05:04:30.861Z,25.94
2022-12-06T05:05:34.872Z,22.94
2022-12-06T05:06:39.605Z,28.47
2022-12-06T05:07:43.532Z,26.00
2022-12-06T05:08:47.547Z,31.31
2022-12-06T05:09:53.080Z,33.07
2022-12-06T05:10:57.477Z,16.87
2022-12-06T05:12:01.596Z,26.62
2022-12-06T05:13:06.275Z,29.56
2022-12-06T05:14:10.265Z,30.50
2022-12-06T05:15:16.060Z,31.69
2022-12-06T05:16:20.027Z,28.62
2022-12-06T05:17:23.922Z,26.62
2022-12-06T05:18:28.489Z,24.94
2022-12-06T05:19:32.356Z,33.13
2022-12-06T05:20:37.183Z,25.73
2022-12-06T05:21:41.220Z,25.37
2022-12-06T05:22:45.244Z,31.87
2022-12-06T05:23:50.259Z,31.67
2022-12-06T05:24:54.155Z,29.60
2022-12-06T05:26:03.050Z,29.56
2022-12-06T05:27:06.950Z,26.00
2022-12-06T05:28:10.980Z,26.31
2022-12-06T05:29:17.987Z,26.12
2022-12-06T05:30:22.114Z,24.12
2022-12-06T05:31:27.194Z,22.94
2022-12-06T05:32:31.160Z,31.50
2022-12-06T05:33:36.023Z,33.81
2022-12-06T05:34:41.420Z,33.60
2022-12-06T05:35:45.487Z,34.13
2022-12-06T05:36:49.934Z,34.56
2022-12-06T05:37:53.929Z,35.07
2022-12-06T05:38:58.024Z,37.53
2022-12-06T05:40:02.431Z,35.00
2022-12-06T05:41:07.486Z,31.87
2022-12-06T05:42:13.460Z,31.75
2022-12-06T05:43:17.741Z,33.33
2022-12-06T05:44:21.750Z,29.33
2022-12-06T05:45:27.327Z,29.63
2022-12-06T05:46:31.467Z,33.88
2022-12-06T05:47:35.825Z,32.06
2022-12-06T05:48:39.955Z,30.00
2022-12-06T05:49:44.039Z,27.81
2022-12-06T05:50:49.233Z,31.56
2022-12-06T05:51:53.383Z,29.87
2022-12-06T05:53:01.382Z,31.94
2022-12-06T05:54:05.416Z,29.12
2022-12-06T05:55:09.597Z,19.19
2022-12-06T05:56:13.954Z,35.73
2022-12-06T05:57:17.948Z,31.62
2022-12-06T05:58:22.048Z,28.87
2022-12-06T05:59:26.004Z,32.50
2022-12-06T06:00:30.187Z,27.93
2022-12-06T06:01:35.341Z,31.87
2022-12-06T06:02:40.909Z,28.62
2022-12-06T06:03:47.991Z,28.31
2022-12-06T06:04:54.156Z,30.06
2022-12-06T06:06:00.228Z,26.94
2022-12-06T06:07:04.276Z,30.88
2022-12-06T06:08:08.255Z,26.87
2022-12-06T06:09:12.272Z,31.27
2022-12-06T06:10:17.170Z,27.50
2022-12-06T06:11:22.694Z,27.25
2022-12-06T06:12:26.627Z,27.25
2022-12-06T06:13:30.486Z,33.94
2022-12-06T06:14:34.428Z,32.13
2022-12-06T06:15:38.936Z,28.06
2022-12-06T06:16:43.089Z,31.94
2022-12-06T06:17:47.042Z,28.75
2022-12-06T10:23:10.991Z,36.93
2022-12-06T10:24:20.738Z,38.75
2022-12-06T10:25:30.645Z,27.37
2022-12-06T10:26:46.420Z,37.88
2022-12-06T10:27:59.006Z,29.06
2022-12-06T10:29:29.480Z,38.81
2022-12-06T10:30:29.915Z,36.94
2022-12-06T10:31:45.405Z,36.06
2022-12-06T10:33:10.487Z,36.19
2022-12-06T10:34:29.684Z,32.25
2022-12-06T10:35:54.634Z,31.69
2022-12-06T10:37:24.103Z,34.44
2022-12-06T10:38:48.915Z,37.63
2022-12-06T10:39:57.453Z,36.88
2022-12-06T10:41:04.472Z,31.40
2022-12-06T10:42:16.182Z,35.19
2022-12-06T10:43:28.781Z,39.00
2022-12-06T10:44:47.346Z,34.87
2022-12-06T10:45:57.227Z,40.38
2022-12-06T10:47:07.106Z,34.00
2022-12-06T10:48:17.001Z,33.00
2022-12-06T10:49:35.933Z,31.31
2022-12-06T10:50:42.188Z,33.06
2022-12-06T10:53:18.465Z,35.50
2022-12-06T10:54:31.216Z,35.94
2022-12-06T10:55:38.230Z,35.50
2022-12-06T10:56:43.915Z,42.13
2022-12-06T10:57:53.508Z,35.63
2022-12-06T10:59:00.560Z,36.88
2022-12-06T11:00:16.942Z,36.33
2022-12-06T11:01:24.380Z,32.44
2022-12-06T11:02:37.386Z,34.81
2022-12-06T11:03:44.442Z,35.88
2022-12-06T11:04:56.082Z,28.87
2022-12-06T11:06:19.371Z,41.31
2022-12-06T11:07:26.371Z,29.87
2022-12-06T11:08:36.165Z,32.69
2022-12-06T11:09:44.590Z,30.75
2022-12-06T11:10:48.959Z,35.88
2022-12-06T11:11:53.262Z,30.62
2022-12-06T11:13:03.225Z,30.06
2022-12-06T11:14:36.178Z,37.94
2022-12-06T11:15:43.230Z,34.13
2022-12-06T11:17:07.830Z,33.69
2022-12-06T11:18:18.014Z,32.75
2022-12-06T11:19:27.508Z,28.50
2022-12-06T11:20:34.557Z,32.20
2022-12-06T11:21:41.539Z,39.31
2022-12-06T11:23:03.570Z,33.25
2022-12-06T11:24:28.466Z,38.81
2022-12-06T11:25:38.550Z,34.80
2022-12-06T11:27:12.704Z,39.75
2022-12-06T11:28:43.296Z,35.63
2022-12-06T11:29:50.383Z,39.94
2022-12-06T11:30:56.594Z,39.53
2022-12-06T11:32:05.671Z,29.63
2022-12-06T11:33:11.158Z,32.56
2022-12-06T11:34:18.191Z,40.44
2022-12-06T11:35:25.109Z,31.62
2022-12-06T11:36:30.155Z,35.38
2022-12-06T11:37:41.431Z,29.37
2022-12-06T11:38:44.562Z,39.50
2022-12-06T11:39:51.459Z,33.94
2022-12-06T11:40:56.056Z,30.25
2022-12-06T11:42:03.191Z,30.00
2022-12-06T11:43:10.225Z,37.73
2022-12-06T11:44:19.792Z,38.69
2022-12-06T11:45:34.344Z,39.20
2022-12-06T11:46:40.374Z,32.25
2022-12-06T11:47:45.011Z,36.25
2022-12-06T11:48:49.257Z,29.50
2022-12-06T11:50:00.373Z,31.94
2022-12-06T11:51:08.271Z,32.19
2022-12-06T11:52:15.486Z,36.81
2022-12-06T11:53:34.213Z,19.37
2022-12-06T11:54:42.797Z,30.50
2022-12-06T11:55:53.569Z,29.06
2022-12-06T11:56:58.748Z,36.50
2022-12-06T11:58:05.730Z,39.69
2022-12-06T11:59:33.359Z,34.94
2022-12-06T12:00:38.680Z,29.87
2022-12-06T12:01:48.386Z,32.63
2022-12-06T12:02:55.856Z,29.81
2022-12-06T12:04:02.847Z,37.19
2022-12-06T12:05:11.169Z,35.56
2022-12-06T12:06:23.861Z,29.94
2022-12-06T12:07:29.763Z,36.19
2022-12-06T12:08:35.085Z,28.06
2022-12-06T12:09:50.884Z,29.87
2022-12-06T12:11:04.914Z,33.50
2022-12-06T12:12:13.230Z,35.88
2022-12-06T12:13:22.291Z,35.06
2022-12-06T12:14:29.389Z,39.25
2022-12-06T12:15:35.055Z,35.63
2022-12-06T12:16:47.660Z,30.00
2022-12-06T12:17:55.501Z,35.00
2022-12-06T12:19:05.505Z,35.06
2022-12-06T12:20:30.377Z,35.19
2022-12-06T12:21:37.422Z,36.00
2022-12-06T13:23:09.302Z,42.75
2022-12-06T13:24:22.192Z,42.00
2022-12-06T13:25:26.294Z,40.69
2022-12-06T13:28:14.818Z,39.75
2022-12-06T13:29:42.913Z,32.80
2022-12-06T13:30:49.703Z,43.07
2022-12-06T13:31:56.304Z,51.19
2022-12-06T13:33:03.014Z,44.07
2022-12-06T13:34:17.915Z,39.88
2022-12-06T13:35:33.833Z,39.94
2022-12-06T13:36:37.917Z,40.75
2022-12-06T13:37:55.290Z,39.63
2022-12-06T13:38:59.694Z,34.81
2022-12-06T13:40:07.020Z,42.38
2022-12-06T13:41:31.263Z,38.56
2022-12-06T13:42:45.325Z,36.73
2022-12-06T13:43:56.049Z,35.93
2022-12-06T13:45:03.707Z,35.94
2022-12-06T13:46:11.242Z,32.06
2022-12-06T13:47:36.157Z,33.13
2022-12-06T13:48:55.061Z,34.06
2022-12-06T13:50:04.773Z,41.44
2022-12-06T13:51:15.011Z,43.94
2022-12-06T13:52:38.499Z,37.20
2022-12-06T13:54:13.482Z,40.19
2022-12-06T13:55:30.757Z,40.00
2022-12-06T13:57:02.192Z,53.50
2022-12-06T13:58:11.982Z,47.56
2022-12-06T13:59:00.433Z,48.06
2022-12-06T14:01:40.755Z,42.81
2022-12-06T14:02:46.411Z,46.50
2022-12-06T14:03:56.080Z,41.06
2022-12-06T18:31:13.394Z,52.13
2022-12-06T18:33:48.880Z,54.06
2022-12-06T18:34:59.894Z,53.87
2022-12-06T18:37:56.791Z,51.44
2022-12-06T18:41:30.848Z,50.60
2022-12-06T18:42:37.861Z,59.67
2022-12-06T18:44:00.545Z,64.27
2022-12-06T18:45:42.097Z,62.00
2022-12-06T18:47:17.097Z,65.67
2022-12-06T18:48:25.620Z,66.07
2022-12-06T18:50:10.301Z,66.20
2022-12-06T18:51:17.827Z,62.47
2022-12-06T18:52:25.734Z,62.60
2022-12-06T18:53:31.316Z,57.00
2022-12-06T18:54:35.319Z,61.13
2022-12-06T18:55:43.652Z,61.13
2022-12-06T18:56:47.621Z,57.88
2022-12-06T18:57:54.299Z,54.69
2022-12-06T18:59:03.961Z,54.33
2022-12-06T19:00:44.287Z,45.67
2022-12-06T19:14:36.244Z,52.87
2022-12-06T19:19:00.557Z,56.69
2022-12-06T19:20:04.671Z,48.50
2022-12-06T19:20:50.930Z,47.69
2022-12-06T19:22:13.489Z,51.63
2022-12-06T19:23:05.542Z,55.07
2022-12-06T19:24:16.053Z,57.87
2022-12-06T19:25:21.546Z,64.07
2022-12-06T19:26:27.201Z,51.63
2022-12-06T19:27:35.822Z,48.94
2022-12-06T19:28:48.010Z,52.20
2022-12-06T19:31:08.399Z,52.20
2022-12-06T19:32:10.807Z,51.00
2022-12-06T19:33:16.332Z,53.19
2022-12-06T19:47:32.424Z,56.07
2022-12-06T19:48:39.294Z,52.67
2022-12-06T19:49:43.325Z,53.87
2022-12-06T19:50:47.332Z,53.50
2022-12-06T19:51:53.196Z,50.56
2022-12-06T19:52:58.755Z,49.53
2022-12-06T19:54:07.480Z,55.12
2022-12-06T19:55:13.232Z,51.27
2022-12-06T19:56:20.431Z,47.67
2022-12-06T19:57:26.137Z,40.56
2022-12-06T19:58:31.836Z,40.60
2022-12-06T19:59:52.594Z,46.06
2022-12-06T20:00:44.929Z,36.73
2022-12-06T20:01:54.776Z,44.56
2022-12-06T20:03:00.560Z,42.47
2022-12-06T20:04:10.959Z,44.81
2022-12-06T20:05:16.324Z,49.00
2022-12-06T20:06:24.555Z,39.81
2022-12-06T20:07:32.288Z,46.63
2022-12-06T20:08:37.893Z,42.13
2022-12-06T20:09:41.880Z,56.00
2022-12-06T20:10:46.107Z,54.19
2022-12-06T20:11:52.692Z,56.93
2022-12-06T20:13:02.322Z,53.07
2022-12-06T20:14:06.859Z,52.06
2022-12-06T20:15:11.339Z,47.50
2022-12-06T20:16:19.827Z,50.94
2022-12-06T20:17:26.907Z,54.33
2022-12-06T20:18:33.050Z,59.13
2022-12-06T20:19:38.451Z,65.33
2022-12-06T20:20:44.076Z,68.37
2022-12-06T20:21:51.304Z,71.80
2022-12-06T20:22:57.949Z,65.40
2022-12-06T20:24:03.949Z,62.40
2022-12-06T20:25:09.613Z,61.53
2022-12-06T20:26:48.181Z,60.80
2022-12-06T20:27:23.989Z,55.27
2022-12-06T20:28:27.994Z,60.12
2022-12-06T20:29:33.488Z,56.31
2022-12-06T20:30:50.135Z,59.47
2022-12-06T20:31:55.324Z,60.07
2022-12-06T20:33:05.688Z,62.53
2022-12-06T20:34:15.006Z,63.00
2022-12-06T20:35:19.304Z,64.20
2022-12-06T20:36:27.911Z,50.93
2022-12-06T20:37:30.707Z,60.75
2022-12-06T20:38:36.184Z,59.56
2022-12-06T20:39:40.484Z,76.47
2022-12-06T20:40:48.494Z,76.19
2022-12-06T20:41:52.840Z,70.62
2022-12-06T20:42:56.791Z,60.33
2022-12-06T20:44:06.328Z,57.93
2022-12-06T20:45:11.962Z,61.20
2022-12-06T20:46:21.948Z,59.00
2022-12-06T20:47:28.089Z,58.13
2022-12-06T20:48:33.150Z,54.44
2022-12-06T20:49:40.964Z,59.19
2022-12-06T20:50:46.175Z,62.00
2022-12-06T20:51:53.215Z,51.20
2022-12-06T20:57:05.839Z,47.00
2022-12-06T20:58:16.882Z,44.47
2022-12-06T20:59:20.639Z,51.44
2022-12-06T21:01:41.266Z,42.25
2022-12-06T21:02:54.695Z,43.80
2022-12-06T21:03:55.785Z,44.07
2022-12-06T21:05:04.051Z,44.07
2022-12-06T21:06:10.501Z,40.81
2022-12-06T21:07:16.015Z,33.93
2022-12-06T21:08:21.662Z,28.69
2022-12-06T21:09:25.651Z,33.87
2022-12-06T21:10:33.806Z,42.25
2022-12-06T21:11:45.577Z,45.33
2022-12-06T21:12:47.440Z,53.67
2022-12-06T21:13:58.075Z,46.44
2022-12-06T21:15:03.517Z,40.63
2022-12-06T21:16:12.721Z,45.07
2022-12-06T21:17:17.871Z,37.27
2022-12-06T21:18:25.572Z,44.73
2022-12-06T21:19:29.045Z,48.06
2022-12-06T21:21:55.558Z,44.63
2022-12-06T21:23:00.586Z,52.56
2022-12-06T21:24:09.404Z,47.88
2022-12-06T21:25:17.820Z,38.50
2022-12-06T21:26:34.130Z,41.69
2022-12-06T21:27:33.334Z,38.69
2022-12-06T21:28:45.337Z,41.06
2022-12-06T21:29:49.268Z,37.25
2022-12-06T21:30:55.630Z,39.19
2022-12-06T21:32:01.336Z,37.00
2022-12-06T21:33:06.789Z,44.33
2022-12-06T21:34:13.824Z,40.93
2022-12-06T21:35:17.830Z,40.75
2022-12-06T21:36:21.768Z,38.87
2022-12-06T21:37:25.655Z,43.94
2022-12-06T21:38:35.640Z,47.94
2022-12-06T21:57:17.724Z,34.20
2022-12-06T21:58:59.836Z,33.44
2022-12-06T22:00:45.929Z,29.81
2022-12-06T22:01:51.182Z,33.13
2022-12-06T22:03:03.088Z,31.94
2022-12-06T22:05:34.552Z,35.44
2022-12-06T22:06:40.222Z,33.56
2022-12-06T22:07:45.744Z,34.69
2022-12-06T22:08:56.724Z,37.88
2022-12-06T22:10:05.311Z,34.38
2022-12-06T22:11:15.875Z,39.50
2022-12-06T22:12:23.927Z,41.00
2022-12-06T22:13:35.940Z,34.19
2022-12-06T22:16:01.590Z,34.53
2022-12-06T22:17:03.426Z,33.63
